Terminal Aerodrome Forecast
Issued by NWS

Home | Current Version | Previous Version | Text Only | Print | Product List | Glossary On
Versions: 1 2 3 4 5 6 7 8 9 10 11 12 13 14 15 16 17
418
FTUS46 KSEW 290520
TAFHQM
TAF
KHQM 290520Z 2906/3006 27007KT 5SM BR OVC022
     FM291200 23006KT P6SM OVC015
     FM291800 23008KT P6SM BKN025=

USA.gov is the U.S. government's official web portal to all federal, state and local government web resources and services.